Time;durP1;ratioP1;P1;durP2;ratioP2;P2;SDS_P1;SDS_P2;PMS_P1;PMS_P2;Temp;Humidity;BMP_temperature;BMP_pressure;BME280_temperature;BME280_humidity;BME280_pressure;Samples;Min_cycle;Max_cycle;Signal;HPM_P1;HPM_P2
2024/03/03 00:00:35;;;;;;;2.50;0.70;;;;;;;1.26;100.00;99255.78;5039657;28;20032;-74
2024/03/03 00:03:01;;;;;;;0.80;0.75;;;;;;;1.24;100.00;99252.44;5039593;28;20040;-74
2024/03/03 00:05:27;;;;;;;0.60;0.60;;;;;;;1.26;100.00;99253.97;5039617;28;20036;-74
2024/03/03 00:07:52;;;;;;;1.05;0.90;;;;;;;1.23;100.00;99246.31;5039355;28;20028;-74
2024/03/03 00:10:18;;;;;;;3.22;0.65;;;;;;;1.21;100.00;99256.22;5056054;28;20036;-74
2024/03/03 00:12:44;;;;;;;1.08;0.98;;;;;;;1.22;100.00;99254.44;5038927;28;20024;-74
2024/03/03 00:15:09;;;;;;;0.70;0.70;;;;;;;1.18;100.00;99253.91;5055507;28;20028;-74
2024/03/03 00:17:36;;;;;;;1.20;0.80;;;;;;;1.17;100.00;99246.94;5056114;28;20066;-74
2024/03/03 00:20:04;;;;;;;0.77;0.73;;;;;;;1.22;100.00;99251.78;5055921;28;20035;-75
2024/03/03 00:22:32;;;;;;;0.60;0.60;;;;;;;1.26;100.00;99258.44;5056947;28;20097;-74
2024/03/03 00:24:57;;;;;;;1.23;0.80;;;;;;;1.27;100.00;99262.72;5022929;28;20070;-74
2024/03/03 00:27:25;;;;;;;0.70;0.70;;;;;;;1.28;100.00;99259.94;5072124;28;20024;-74
2024/03/03 00:29:51;;;;;;;0.60;0.60;;;;;;;1.29;100.00;99256.28;5055670;28;20033;-74
2024/03/03 00:32:18;;;;;;;1.08;0.65;;;;;;;1.31;100.00;99254.34;5055426;28;20567;-74
2024/03/03 00:34:45;;;;;;;0.75;0.68;;;;;;;1.35;100.00;99257.53;5055647;28;20374;-74
2024/03/03 00:37:10;;;;;;;0.60;0.60;;;;;;;1.34;100.00;99255.03;5022762;28;20448;-74
2024/03/03 00:39:42;;;;;;;1.23;0.73;;;;;;;1.37;100.00;99257.34;5039265;28;20033;-74
2024/03/03 00:42:08;;;;;;;0.60;0.60;;;;;;;1.38;100.00;99248.44;5039190;28;20079;-74
2024/03/03 00:44:34;;;;;;;1.02;0.68;;;;;;;1.35;100.00;99260.19;5039196;28;20451;-74
2024/03/03 00:46:59;;;;;;;5.03;0.70;;;;;;;1.29;100.00;99256.28;5039120;28;20025;-74
2024/03/03 00:49:25;;;;;;;2.78;0.70;;;;;;;1.29;100.00;99253.66;5056268;28;20036;-74
2024/03/03 00:51:50;;;;;;;0.70;0.70;;;;;;;1.31;100.00;99249.03;5039133;28;20398;-74
2024/03/03 00:54:16;;;;;;;0.70;0.70;;;;;;;1.32;100.00;99249.88;5038808;28;20032;-74
2024/03/03 00:56:42;;;;;;;1.58;0.70;;;;;;;1.39;100.00;99248.28;5055353;28;20142;-74
2024/03/03 00:59:12;;;;;;;0.60;0.60;;;;;;;1.41;100.00;99245.47;5040173;28;20051;-74
2024/03/03 01:01:38;;;;;;;0.68;0.68;;;;;;;1.40;100.00;99246.44;5055131;28;20024;-74
2024/03/03 01:04:04;;;;;;;0.63;0.63;;;;;;;1.40;100.00;99243.81;5039009;28;20032;-74
2024/03/03 01:06:29;;;;;;;1.05;1.05;;;;;;;1.41;100.00;99238.38;5073276;28;20043;-74
2024/03/03 01:08:55;;;;;;;1.35;0.60;;;;;;;1.40;100.00;99249.09;5038861;28;20039;-74
2024/03/03 01:11:21;;;;;;;1.15;0.80;;;;;;;1.44;100.00;99247.81;5038889;28;20032;-74
2024/03/03 01:13:46;;;;;;;2.55;0.68;;;;;;;1.47;100.00;99244.84;5055013;28;20025;-74
2024/03/03 01:16:12;;;;;;;0.50;0.50;;;;;;;1.50;100.00;99239.25;5073158;28;20056;-74
2024/03/03 01:18:38;;;;;;;0.63;0.63;;;;;;;1.57;100.00;99240.28;5071794;28;20366;-75
2024/03/03 01:21:04;;;;;;;2.17;1.10;;;;;;;1.64;100.00;99232.53;5055934;28;20033;-74
2024/03/03 01:23:30;;;;;;;1.17;0.80;;;;;;;1.74;100.00;99233.28;5039832;28;20119;-75
2024/03/03 01:25:55;;;;;;;1.65;0.90;;;;;;;1.83;100.00;99226.22;5042569;28;20020;-74
2024/03/03 01:28:21;;;;;;;1.13;0.90;;;;;;;1.90;100.00;99222.75;5042496;28;20029;-74
2024/03/03 01:30:47;;;;;;;1.10;0.70;;;;;;;2.01;100.00;99228.78;5042516;28;20124;-74
2024/03/03 01:33:12;;;;;;;0.70;0.70;;;;;;;2.07;100.00;99226.34;5042253;28;20043;-74
2024/03/03 01:35:38;;;;;;;0.85;0.70;;;;;;;2.13;100.00;99228.34;5058951;28;20042;-74
2024/03/03 01:38:04;;;;;;;1.08;0.98;;;;;;;2.19;100.00;99226.88;5042336;28;20024;-74
2024/03/03 01:40:30;;;;;;;1.50;0.73;;;;;;;2.23;100.00;99227.41;5042619;28;20131;-74
2024/03/03 01:42:56;;;;;;;1.40;0.75;;;;;;;2.29;100.00;99218.78;5042343;28;20027;-74
2024/03/03 01:45:23;;;;;;;3.90;0.90;;;;;;;2.34;100.00;99216.50;5074992;28;20060;-74
2024/03/03 01:47:54;;;;;;;2.35;0.80;;;;;;;2.42;100.00;99221.81;5058641;28;20060;-74
2024/03/03 01:50:20;;;;;;;1.05;0.65;;;;;;;2.46;100.00;99225.84;5025681;28;20382;-74
2024/03/03 01:52:47;;;;;;;0.50;0.50;;;;;;;2.50;100.00;99224.50;5075215;28;20031;-74
2024/03/03 01:55:14;;;;;;;0.93;0.60;;;;;;;2.60;100.00;99227.84;5075109;28;20032;-74
2024/03/03 01:57:40;;;;;;;3.03;0.77;;;;;;;2.68;100.00;99220.91;5058523;28;20032;-74
2024/03/03 02:00:09;;;;;;;0.63;0.63;;;;;;;2.71;100.00;99220.56;5025478;28;20032;-74
2024/03/03 02:02:38;;;;;;;1.10;0.60;;;;;;;2.74;100.00;99207.78;5058387;28;20034;-74
2024/03/03 02:05:06;;;;;;;0.95;0.90;;;;;;;2.78;100.00;99200.31;5074954;28;20021;-74
2024/03/03 02:07:32;;;;;;;1.23;0.70;;;;;;;2.81;100.00;99202.69;5057997;28;20020;-74
2024/03/03 02:09:59;;;;;;;0.50;0.50;;;;;;;2.86;100.00;99208.31;5042162;28;20032;-74
2024/03/03 02:12:25;;;;;;;0.50;0.50;;;;;;;2.86;100.00;99201.19;5074408;28;20414;-74
2024/03/03 02:14:52;;;;;;;1.13;0.60;;;;;;;2.93;100.00;99195.22;5058049;28;20090;-74
2024/03/03 02:17:18;;;;;;;0.40;0.40;;;;;;;3.00;100.00;99205.00;5074664;28;20032;-74
2024/03/03 02:19:43;;;;;;;2.03;0.60;;;;;;;3.11;100.00;99197.72;5058030;28;20031;-74
2024/03/03 02:22:09;;;;;;;2.38;1.17;;;;;;;3.18;100.00;99202.19;5041557;28;20033;-74
2024/03/03 02:24:36;;;;;;;0.68;0.63;;;;;;;3.24;100.00;99203.34;5041143;28;20043;-74
2024/03/03 02:27:03;;;;;;;0.55;0.55;;;;;;;3.31;100.00;99204.34;5041463;28;20036;-74
2024/03/03 02:29:30;;;;;;;1.45;0.60;;;;;;;3.34;100.00;99201.34;5041631;28;20033;-74
2024/03/03 02:31:56;;;;;;;0.57;0.57;;;;;;;3.36;100.00;99210.00;5057636;28;20097;-74
2024/03/03 02:34:24;;;;;;;0.63;0.63;;;;;;;3.41;100.00;99209.47;5073827;28;20443;-75
2024/03/03 02:36:50;;;;;;;0.40;0.40;;;;;;;3.41;100.00;99191.69;5041347;28;20123;-74
2024/03/03 02:39:16;;;;;;;1.25;0.50;;;;;;;3.46;100.00;99204.50;5041320;28;20119;-75
2024/03/03 02:41:41;;;;;;;0.43;0.43;;;;;;;3.45;100.00;99197.53;5041257;28;20040;-75
2024/03/03 02:44:07;;;;;;;0.85;0.57;;;;;;;3.46;100.00;99199.16;5041241;28;20028;-75
2024/03/03 02:46:33;;;;;;;0.50;0.50;;;;;;;3.47;100.00;99191.03;5041231;28;20036;-75
2024/03/03 02:48:58;;;;;;;1.20;0.55;;;;;;;3.47;100.00;99188.38;5040899;28;20024;-75
2024/03/03 02:51:26;;;;;;;0.52;0.52;;;;;;;3.45;100.00;99182.41;5041144;28;20056;-75
2024/03/03 02:53:53;;;;;;;3.60;1.10;;;;;;;3.43;100.00;99186.22;5057784;28;20493;-75
2024/03/03 02:56:18;;;;;;;0.50;0.50;;;;;;;3.39;100.00;99184.91;5024605;28;20131;-75
2024/03/03 02:58:44;;;;;;;0.85;0.60;;;;;;;3.40;100.00;99175.94;5074932;28;20082;-75
2024/03/03 03:01:09;;;;;;;0.40;0.40;;;;;;;3.42;100.00;99172.13;5040879;28;20025;-75
2024/03/03 03:03:35;;;;;;;1.40;0.68;;;;;;;3.43;100.00;99178.25;5040900;28;20096;-75
2024/03/03 03:06:01;;;;;;;4.75;0.82;;;;;;;3.43;100.00;99168.44;5041407;28;20028;-74
2024/03/03 03:08:26;;;;;;;0.43;0.43;;;;;;;3.45;100.00;99165.63;5057356;28;20028;-75
2024/03/03 03:10:54;;;;;;;1.10;0.55;;;;;;;3.45;100.00;99160.31;5040729;28;20044;-75
2024/03/03 03:13:20;;;;;;;3.35;0.63;;;;;;;3.45;100.00;99161.16;5040754;28;20021;-75
2024/03/03 03:15:45;;;;;;;2.05;0.65;;;;;;;3.45;100.00;99150.53;5040680;28;20032;-75
2024/03/03 03:18:12;;;;;;;0.93;0.47;;;;;;;3.47;100.00;99151.19;5073596;28;20024;-75
2024/03/03 03:20:37;;;;;;;2.47;0.82;;;;;;;3.47;100.00;99142.38;5073313;28;20123;-75
2024/03/03 03:23:03;;;;;;;2.20;0.63;;;;;;;3.46;100.00;99141.53;5040325;28;20461;-75
2024/03/03 03:25:29;;;;;;;2.38;1.15;;;;;;;3.42;100.00;99137.56;5040406;28;20040;-75
2024/03/03 03:27:54;;;;;;;0.60;0.60;;;;;;;3.45;100.00;99139.06;5040618;28;20102;-75
2024/03/03 03:30:20;;;;;;;0.70;0.70;;;;;;;3.47;100.00;99137.06;5073057;28;20036;-75
2024/03/03 03:32:46;;;;;;;0.55;0.55;;;;;;;3.48;100.00;99128.09;5056448;28;20031;-75
2024/03/03 03:35:14;;;;;;;0.50;0.50;;;;;;;3.46;100.00;99132.75;5040059;28;20378;-75
2024/03/03 03:37:39;;;;;;;2.60;1.15;;;;;;;3.49;100.00;99135.06;5040083;28;20463;-75
2024/03/03 03:40:09;;;;;;;0.50;0.50;;;;;;;3.52;100.00;99137.41;5040100;28;20032;-75
2024/03/03 03:42:36;;;;;;;0.60;0.60;;;;;;;3.52;100.00;99135.56;5040832;28;20348;-75
2024/03/03 03:45:03;;;;;;;3.70;0.98;;;;;;;3.52;100.00;99134.75;5023548;28;20032;-75
2024/03/03 03:47:31;;;;;;;1.48;0.60;;;;;;;3.55;100.00;99136.19;5072029;28;20427;-75
2024/03/03 03:49:56;;;;;;;0.50;0.50;;;;;;;3.56;100.00;99137.88;5056643;28;20025;-75
2024/03/03 03:52:22;;;;;;;0.52;0.52;;;;;;;3.57;100.00;99136.88;5039923;28;20036;-75
2024/03/03 03:54:48;;;;;;;1.48;0.73;;;;;;;3.55;100.00;99133.53;5056513;28;20032;-75
2024/03/03 03:57:13;;;;;;;0.73;0.43;;;;;;;3.55;100.00;99134.41;5039869;28;20028;-75
2024/03/03 03:59:39;;;;;;;0.40;0.40;;;;;;;3.55;100.00;99145.03;5039875;28;20097;-75
2024/03/03 04:02:05;;;;;;;2.63;0.60;;;;;;;3.56;100.00;99146.66;5039800;28;20089;-75
2024/03/03 04:04:37;;;;;;;0.60;0.60;;;;;;;3.57;100.00;99147.50;5039829;28;20032;-75
2024/03/03 04:07:19;;;;;;;0.50;0.50;;;;;;;3.56;100.00;99149.34;5057425;28;20029;-75
2024/03/03 04:09:45;;;;;;;0.50;0.50;;;;;;;3.54;100.00;99148.66;5040049;28;20024;-75
2024/03/03 04:12:11;;;;;;;0.50;0.50;;;;;;;3.54;100.00;99153.97;5055740;28;20378;-75
2024/03/03 04:14:36;;;;;;;0.50;0.50;;;;;;;3.52;100.00;99148.84;5039641;28;20370;-75
2024/03/03 04:17:02;;;;;;;2.80;1.08;;;;;;;3.47;100.00;99153.84;5039610;28;20359;-75
2024/03/03 04:19:28;;;;;;;0.60;0.60;;;;;;;3.37;100.00;99157.69;5056216;28;20036;-75
2024/03/03 04:21:53;;;;;;;0.60;0.60;;;;;;;3.18;100.00;99162.34;5038935;28;20024;-75
2024/03/03 04:24:19;;;;;;;0.50;0.50;;;;;;;2.89;100.00;99165.53;5039487;28;20177;-75
2024/03/03 04:26:44;;;;;;;5.15;0.95;;;;;;;2.73;100.00;99166.34;5072574;28;20028;-75
2024/03/03 04:29:10;;;;;;;3.42;0.70;;;;;;;2.50;100.00;99162.66;5039485;28;20036;-75
2024/03/03 04:31:43;;;;;;;1.08;0.70;;;;;;;2.30;100.00;99168.25;5056010;28;20024;-75
2024/03/03 04:34:10;;;;;;;2.72;0.82;;;;;;;2.12;100.00;99168.34;5039336;28;20059;-75
2024/03/03 04:36:36;;;;;;;0.50;0.50;;;;;;;1.93;100.00;99165.94;5039513;28;20028;-75
2024/03/03 04:39:03;;;;;;;0.63;0.63;;;;;;;1.70;100.00;99171.81;5056058;28;20028;-75
2024/03/03 04:41:31;;;;;;;1.48;0.57;;;;;;;1.63;100.00;99177.91;5055968;28;20032;-75
2024/03/03 04:43:57;;;;;;;0.50;0.50;;;;;;;1.54;100.00;99174.38;5072153;28;20032;-75
2024/03/03 04:46:22;;;;;;;0.60;0.60;;;;;;;1.48;100.00;99182.94;5038974;28;20177;-75
2024/03/03 04:48:48;;;;;;;0.50;0.50;;;;;;;1.54;100.00;99188.47;5022578;28;20055;-75
2024/03/03 04:51:14;;;;;;;0.50;0.50;;;;;;;1.51;100.00;99186.13;5055601;28;20055;-75
2024/03/03 04:53:40;;;;;;;1.40;0.65;;;;;;;1.45;100.00;99188.56;5038973;28;20016;-75
2024/03/03 04:56:06;;;;;;;0.50;0.50;;;;;;;1.29;100.00;99191.91;5055709;28;20028;-75
2024/03/03 04:58:32;;;;;;;0.50;0.50;;;;;;;1.23;100.00;99197.84;5058321;28;20408;-75
2024/03/03 05:00:57;;;;;;;0.50;0.50;;;;;;;1.22;100.00;99202.31;5060349;28;20032;-75
2024/03/03 05:03:26;;;;;;;0.50;0.50;;;;;;;1.49;100.00;99198.69;5076212;28;20393;-75
2024/03/03 05:05:52;;;;;;;0.50;0.50;;;;;;;1.51;100.00;99204.66;5043121;28;20090;-75
2024/03/03 05:08:17;;;;;;;0.50;0.50;;;;;;;1.24;100.00;99210.91;5042827;28;20040;-75
2024/03/03 05:10:43;;;;;;;0.95;0.60;;;;;;;1.19;100.00;99226.44;5059448;28;20055;-75
2024/03/03 05:13:09;;;;;;;0.60;0.60;;;;;;;1.26;100.00;99230.13;5042802;28;20016;-75
2024/03/03 05:15:34;;;;;;;0.50;0.50;;;;;;;1.45;100.00;99239.69;5042972;28;20059;-75
2024/03/03 05:18:00;;;;;;;0.50;0.50;;;;;;;1.68;100.00;99233.91;5042846;28;20084;-75
2024/03/03 05:20:26;;;;;;;0.90;0.80;;;;;;;1.75;100.00;99230.47;5059277;28;20044;-75
2024/03/03 05:22:51;;;;;;;0.50;0.50;;;;;;;1.71;100.00;99242.38;5042822;28;20103;-75
2024/03/03 05:25:17;;;;;;;0.50;0.50;;;;;;;1.71;100.00;99247.66;5058902;28;20024;-75
2024/03/03 05:27:42;;;;;;;0.50;0.50;;;;;;;1.82;100.00;99257.16;5042668;28;20028;-75
2024/03/03 05:30:08;;;;;;;0.50;0.50;;;;;;;1.91;100.00;99255.41;5075744;28;20111;-75
2024/03/03 05:32:34;;;;;;;0.40;0.40;;;;;;;1.90;100.00;99267.00;5042505;28;20052;-75
2024/03/03 05:34:59;;;;;;;0.50;0.50;;;;;;;1.82;100.00;99267.78;5042598;28;20024;-76
2024/03/03 05:37:25;;;;;;;2.00;0.55;;;;;;;1.71;100.00;99276.81;5042519;28;20130;-75
2024/03/03 05:39:51;;;;;;;0.50;0.50;;;;;;;1.53;100.00;99273.38;5042452;28;20029;-75
2024/03/03 05:42:17;;;;;;;4.95;0.70;;;;;;;1.29;100.00;99282.78;5075489;28;20025;-75
2024/03/03 05:44:43;;;;;;;0.47;0.47;;;;;;;1.17;100.00;99280.53;5042500;28;20044;-75
2024/03/03 05:47:09;;;;;;;0.50;0.50;;;;;;;1.20;100.00;99289.00;5058574;28;20048;-75
2024/03/03 05:49:36;;;;;;;0.40;0.40;;;;;;;1.41;100.00;99299.28;5059362;28;20363;-75
2024/03/03 05:52:02;;;;;;;0.50;0.50;;;;;;;1.47;100.00;99305.78;5042380;28;20440;-75
2024/03/03 05:54:28;;;;;;;0.80;0.80;;;;;;;1.47;100.00;99301.31;5075113;28;20488;-75
2024/03/03 05:56:54;;;;;;;0.40;0.40;;;;;;;1.43;100.00;99305.25;5025707;28;20044;-75
2024/03/03 05:59:20;;;;;;;0.50;0.50;;;;;;;1.54;100.00;99310.31;5058554;28;20024;-75
2024/03/03 06:01:48;;;;;;;0.50;0.50;;;;;;;1.63;100.00;99316.50;5042064;28;20020;-75
2024/03/03 06:04:17;;;;;;;0.50;0.50;;;;;;;1.62;100.00;99314.84;5058509;28;20099;-75
2024/03/03 06:06:43;;;;;;;0.50;0.50;;;;;;;1.55;100.00;99313.78;5042098;28;20481;-75
2024/03/03 06:09:10;;;;;;;0.50;0.50;;;;;;;1.40;100.00;99317.97;5058459;28;20135;-75
2024/03/03 06:11:37;;;;;;;0.50;0.50;;;;;;;1.09;100.00;99323.66;5074973;28;20025;-75
2024/03/03 06:14:03;;;;;;;0.60;0.60;;;;;;;0.82;100.00;99322.72;5041500;28;20052;-75
2024/03/03 06:16:29;;;;;;;0.50;0.50;;;;;;;0.64;100.00;99335.06;5041992;28;20070;-75
2024/03/03 06:18:55;;;;;;;0.63;0.63;;;;;;;0.56;100.00;99327.03;5075116;28;20074;-75
2024/03/03 06:21:21;;;;;;;0.50;0.50;;;;;;;0.37;100.00;99318.22;5042031;28;20036;-75
2024/03/03 06:23:47;;;;;;;0.80;0.80;;;;;;;0.17;100.00;99317.44;5041691;28;20149;-75
2024/03/03 06:26:16;;;;;;;0.60;0.60;;;;;;;0.03;100.00;99320.56;5041625;28;20122;-75
2024/03/03 06:28:44;;;;;;;0.50;0.50;;;;;;;-0.08;100.00;99318.91;5041524;28;20036;-75
2024/03/03 06:31:11;;;;;;;0.50;0.50;;;;;;;-0.11;100.00;99318.34;5058595;28;20040;-75
2024/03/03 06:33:37;;;;;;;0.50;0.50;;;;;;;0.05;100.00;99329.16;5075231;28;20073;-75
2024/03/03 06:36:03;;;;;;;0.60;0.60;;;;;;;-0.05;100.00;99338.94;5041126;28;20036;-75
2024/03/03 06:38:29;;;;;;;0.60;0.60;;;;;;;-0.22;100.00;99337.84;5041374;28;20051;-75
2024/03/03 06:40:54;;;;;;;0.50;0.50;;;;;;;-0.24;100.00;99338.00;5041405;28;20029;-75
2024/03/03 06:43:20;;;;;;;0.60;0.60;;;;;;;-0.21;100.00;99347.44;5074662;28;20044;-75
2024/03/03 06:45:46;;;;;;;0.50;0.50;;;;;;;-0.22;100.00;99343.13;5041342;28;20493;-75
2024/03/03 06:48:12;;;;;;;0.50;0.50;;;;;;;-0.11;100.00;99350.88;5041205;28;20481;-75
2024/03/03 06:50:38;;;;;;;0.50;0.50;;;;;;;-0.06;100.00;99353.94;5041426;28;20131;-75
2024/03/03 06:53:04;;;;;;;3.83;0.60;;;;;;;0.04;100.00;99368.94;5040932;28;20401;-75
2024/03/03 06:55:30;;;;;;;0.90;0.65;;;;;;;0.03;100.00;99373.41;5041102;28;20060;-76
2024/03/03 06:57:55;;;;;;;0.50;0.50;;;;;;;0.04;100.00;99376.88;5041041;28;20058;-75
2024/03/03 07:00:21;;;;;;;1.02;0.93;;;;;;;0.03;100.00;99373.41;5057606;28;20481;-75
2024/03/03 07:05:31;;;;;;;0.47;0.47;;;;;;;0.02;100.00;99382.28;5059925;28;20413;-75
2024/03/03 07:07:57;;;;;;;0.90;0.90;;;;;;;0.02;100.00;99386.75;5056952;28;20020;-75
2024/03/03 07:10:23;;;;;;;0.70;0.70;;;;;;;0.07;100.00;99389.81;5040737;28;20467;-75
2024/03/03 07:12:49;;;;;;;0.60;0.60;;;;;;;0.06;100.00;99390.78;5040563;28;20036;-75
2024/03/03 07:15:14;;;;;;;0.65;0.65;;;;;;;0.03;100.00;99397.19;5040618;28;20440;-75
2024/03/03 07:17:42;;;;;;;0.80;0.80;;;;;;;-0.06;100.00;99393.56;5040580;28;20036;-75
2024/03/03 07:20:10;;;;;;;0.50;0.50;;;;;;;-0.09;100.00;99391.22;5073397;28;20090;-75
2024/03/03 07:22:37;;;;;;;0.50;0.50;;;;;;;-0.03;100.00;99401.25;5073645;28;20035;-75
2024/03/03 07:25:03;;;;;;;0.60;0.60;;;;;;;-0.02;100.00;99400.25;5057061;28;20078;-75
2024/03/03 07:27:29;;;;;;;0.50;0.50;;;;;;;0.05;100.00;99410.25;5056998;28;20038;-75
2024/03/03 07:29:55;;;;;;;0.68;0.68;;;;;;;0.13;100.00;99413.00;5057000;28;20097;-75
2024/03/03 07:32:21;;;;;;;0.50;0.50;;;;;;;0.20;100.00;99427.34;5040229;28;20454;-75
2024/03/03 07:34:49;;;;;;;0.50;0.50;;;;;;;0.28;100.00;99434.56;5040335;28;20454;-75
2024/03/03 07:37:16;;;;;;;0.55;0.55;;;;;;;0.34;100.00;99428.69;5073300;28;20512;-76
2024/03/03 07:39:42;;;;;;;0.50;0.50;;;;;;;0.48;100.00;99425.59;5056326;28;20029;-75
2024/03/03 07:42:09;;;;;;;0.90;0.57;;;;;;;0.64;100.00;99435.59;5072917;28;20052;-75
2024/03/03 07:44:35;;;;;;;0.55;0.55;;;;;;;0.79;100.00;99436.75;5056607;28;20035;-75
2024/03/03 07:47:01;;;;;;;0.55;0.55;;;;;;;0.95;100.00;99435.28;5056792;28;20036;-75
2024/03/03 07:49:26;;;;;;;0.50;0.50;;;;;;;1.02;100.00;99436.38;5040059;28;20374;-75
2024/03/03 07:51:52;;;;;;;1.70;0.57;;;;;;;1.25;100.00;99447.41;5039994;28;20028;-75
2024/03/03 07:54:17;;;;;;;0.50;0.50;;;;;;;1.51;100.00;99451.03;5039612;28;20086;-75
2024/03/03 07:56:44;;;;;;;0.60;0.60;;;;;;;1.75;100.00;99453.06;5039876;28;20020;-75
2024/03/03 07:59:10;;;;;;;2.92;0.60;;;;;;;1.91;100.00;99456.88;5056620;28;20020;-75
2024/03/03 08:01:35;;;;;;;0.60;0.60;;;;;;;2.03;100.00;99455.63;5039879;28;20034;-75
2024/03/03 08:04:02;;;;;;;6.15;0.95;;;;;;;2.20;100.00;99456.63;5039716;28;20108;-75
2024/03/03 08:06:28;;;;;;;2.20;0.82;;;;;;;2.33;100.00;99454.38;5056302;28;20021;-75
2024/03/03 08:08:53;;;;;;;0.60;0.60;;;;;;;2.35;100.00;99444.44;5040297;28;20461;-75
2024/03/03 08:11:19;;;;;;;0.70;0.70;;;;;;;2.37;100.00;99455.72;5039676;28;20474;-75
2024/03/03 08:13:45;;;;;;;3.17;0.60;;;;;;;2.36;100.00;99461.22;5056041;28;20421;-75
2024/03/03 08:16:11;;;;;;;0.60;0.60;;;;;;;2.41;100.00;99464.22;5039642;28;20134;-75
2024/03/03 08:18:36;;;;;;;0.65;0.65;;;;;;;2.52;100.00;99469.28;5039576;28;20115;-75
2024/03/03 08:21:02;;;;;;;0.60;0.60;;;;;;;2.64;100.00;99468.00;5055682;28;20036;-75
2024/03/03 08:23:28;;;;;;;0.60;0.60;;;;;;;2.85;100.00;99472.13;5039578;28;20028;-75
2024/03/03 08:25:54;;;;;;;3.72;0.70;;;;;;;3.00;100.00;99470.53;5040011;28;20355;-75
2024/03/03 08:28:19;;;;;;;0.63;0.63;;;;;;;3.15;100.00;99465.47;5055513;28;20367;-75
2024/03/03 08:30:45;;;;;;;0.52;0.52;;;;;;;3.52;100.00;99470.41;5039483;28;20107;-75
2024/03/03 08:33:11;;;;;;;0.70;0.70;;;;;;;4.29;100.00;99466.69;5038883;28;20029;-75
2024/03/03 08:35:36;;;;;;;0.70;0.70;;;;;;;4.62;100.00;99462.13;5055860;28;20048;-75
2024/03/03 08:38:02;;;;;;;0.60;0.60;;;;;;;4.77;100.00;99465.78;5039418;28;20089;-75
2024/03/03 08:40:28;;;;;;;2.38;0.70;;;;;;;4.42;100.00;99467.00;5039362;28;20113;-76
2024/03/03 08:42:54;;;;;;;0.70;0.70;;;;;;;4.37;100.00;99475.50;5039338;28;20028;-75
2024/03/03 08:45:20;;;;;;;1.02;1.00;;;;;;;4.31;100.00;99475.31;5055903;28;20066;-75
2024/03/03 08:47:45;;;;;;;1.80;0.95;;;;;;;4.39;100.00;99478.81;5039069;28;20032;-75
2024/03/03 08:50:11;;;;;;;0.52;0.52;;;;;;;5.19;100.00;99483.31;5039254;28;20132;-76
2024/03/03 08:52:38;;;;;;;0.80;0.80;;;;;;;5.77;100.00;99485.66;5039227;28;20051;-76
2024/03/03 08:55:04;;;;;;;0.70;0.70;;;;;;;7.01;100.00;99481.81;5039407;28;20458;-76
2024/03/03 08:57:30;;;;;;;1.05;0.63;;;;;;;6.45;100.00;99482.19;5039123;28;20450;-76
2024/03/03 08:59:57;;;;;;;0.68;0.60;;;;;;;5.80;100.00;99494.16;5071955;28;20035;-76
2024/03/03 09:02:23;;;;;;;1.80;1.40;;;;;;;5.80;100.00;99483.50;5073295;28;20021;-76
2024/03/03 09:04:48;;;;;;;3.50;2.15;;;;;;;6.58;100.00;99486.94;5039595;28;20331;-76
2024/03/03 09:07:14;;;;;;;3.75;2.05;;;;;;;7.50;100.00;99486.59;5039281;28;20343;-76
2024/03/03 09:09:40;;;;;;;2.95;1.85;;;;;;;7.13;100.00;99491.03;5055603;28;20477;-76
2024/03/03 09:12:06;;;;;;;2.28;1.33;;;;;;;6.52;100.00;99498.34;5055161;28;20020;-76
2024/03/03 09:14:33;;;;;;;2.83;1.33;;;;;;;6.55;100.00;99493.47;5038440;28;20086;-76
2024/03/03 09:16:59;;;;;;;1.60;1.50;;;;;;;8.30;100.00;99490.13;5072174;28;20191;-76
2024/03/03 09:19:24;;;;;;;0.85;0.85;;;;;;;9.95;100.00;99492.16;5055484;28;20071;-76
2024/03/03 09:21:50;;;;;;;2.38;0.82;;;;;;;9.18;100.00;99502.16;5038762;28;20064;-76
2024/03/03 09:24:18;;;;;;;3.70;0.70;;;;;;;8.10;100.00;99503.31;5055443;28;20085;-76
2024/03/03 09:26:44;;;;;;;4.57;0.90;;;;;;;8.90;100.00;99512.06;5071952;28;20466;-76
2024/03/03 09:29:09;;;;;;;0.80;0.68;;;;;;;10.15;100.00;99516.34;5071829;28;20024;-77
2024/03/03 09:31:36;;;;;;;2.38;0.80;;;;;;;9.75;100.00;99512.72;5038780;28;20025;-76
2024/03/03 09:34:02;;;;;;;1.55;0.57;;;;;;;10.44;100.00;99515.19;5038635;28;20028;-76
2024/03/03 09:36:28;;;;;;;0.95;0.85;;;;;;;10.85;100.00;99522.25;5071918;28;20025;-76
2024/03/03 09:38:54;;;;;;;1.30;1.10;;;;;;;11.03;100.00;99529.66;5038762;28;20132;-76
2024/03/03 09:41:20;;;;;;;2.38;0.82;;;;;;;11.18;100.00;99521.38;5038777;28;20028;-76
2024/03/03 09:43:50;;;;;;;3.33;1.15;;;;;;;11.16;100.00;99520.75;5038617;28;20478;-76
2024/03/03 09:46:16;;;;;;;1.85;0.90;;;;;;;10.68;100.00;99524.50;5075366;28;20095;-77
2024/03/03 09:48:42;;;;;;;3.03;1.10;;;;;;;12.02;100.00;99523.16;5058409;28;20029;-77
2024/03/03 09:51:10;;;;;;;3.80;1.95;;;;;;;10.77;100.00;99538.59;5042260;28;20031;-76
2024/03/03 09:53:37;;;;;;;3.55;0.98;;;;;;;9.58;100.00;99539.06;5042105;28;20046;-77
2024/03/03 09:56:05;;;;;;;3.72;0.85;;;;;;;9.37;100.00;99532.78;5075243;28;20081;-76
2024/03/03 09:58:31;;;;;;;4.78;1.77;;;;;;;10.08;100.00;99537.00;5074888;28;20024;-77
2024/03/03 10:00:59;;;;;;;3.60;1.17;;;;;;;10.65;100.00;99532.16;5041961;28;20025;-76
2024/03/03 10:03:27;;;;;;;0.60;0.60;;;;;;;11.10;100.00;99532.34;5025442;28;20040;-76
2024/03/03 10:05:55;;;;;;;1.38;1.00;;;;;;;11.38;100.00;99530.22;5058080;28;20159;-76
2024/03/03 10:08:22;;;;;;;1.73;0.73;;;;;;;10.22;100.00;99543.25;5058586;28;20025;-76
2024/03/03 10:10:49;;;;;;;1.98;1.67;;;;;;;9.50;100.00;99534.72;5041801;28;20028;-77
2024/03/03 10:13:16;;;;;;;3.97;1.35;;;;;;;9.24;100.00;99536.22;5057740;28;20016;-76
2024/03/03 10:15:45;;;;;;;1.50;1.08;;;;;;;9.33;100.00;99536.88;5074823;28;20028;-76
2024/03/03 10:18:11;;;;;;;3.90;0.90;;;;;;;11.03;100.00;99542.28;5025964;28;20024;-76
2024/03/03 10:20:36;;;;;;;0.75;0.75;;;;;;;11.96;100.00;99520.50;5041596;28;20028;-76
2024/03/03 10:23:02;;;;;;;2.38;1.00;;;;;;;10.91;100.00;99542.91;5058151;28;20112;-76
2024/03/03 10:25:30;;;;;;;0.68;0.68;;;;;;;10.84;100.00;99536.69;5041706;28;20431;-76
2024/03/03 10:28:11;;;;;;;2.10;1.20;;;;;;;11.87;100.00;99547.69;5041928;28;20111;-76
2024/03/03 10:30:37;;;;;;;2.63;0.57;;;;;;;12.32;100.00;99546.81;5058377;28;20028;-77
2024/03/03 10:33:04;;;;;;;2.78;0.82;;;;;;;11.76;100.00;99547.50;5041323;28;20029;-76
2024/03/03 10:35:30;;;;;;;0.70;0.70;;;;;;;11.28;100.00;99556.75;5074871;28;20059;-75
2024/03/03 10:37:59;;;;;;;1.00;0.73;;;;;;;11.57;100.00;99560.00;5074577;28;20427;-76
2024/03/03 10:40:25;;;;;;;5.15;1.70;;;;;;;10.83;100.00;99570.03;5058625;28;20347;-76
2024/03/03 10:42:52;;;;;;;2.20;1.00;;;;;;;11.57;100.00;99565.38;5057642;28;20039;-76
2024/03/03 10:45:17;;;;;;;5.90;1.77;;;;;;;12.37;100.00;99565.06;5073956;28;20025;-77
2024/03/03 10:47:43;;;;;;;1.75;1.15;;;;;;;13.15;100.00;99568.19;5040976;28;20454;-74
2024/03/03 10:50:17;;;;;;;5.13;3.33;;;;;;;13.00;100.00;99565.00;5057394;28;20067;-74
2024/03/03 10:52:43;;;;;;;5.50;1.88;;;;;;;12.80;100.00;99558.94;5040888;28;20036;-74
2024/03/03 10:55:10;;;;;;;3.67;1.30;;;;;;;13.32;100.00;99552.28;5073626;28;20074;-74
2024/03/03 10:57:36;;;;;;;1.95;1.00;;;;;;;13.46;100.00;99558.34;5040743;28;20401;-74
2024/03/03 11:00:03;;;;;;;3.53;1.05;;;;;;;13.43;100.00;99553.41;5073813;28;20398;-74
2024/03/03 11:02:32;;;;;;;2.53;1.05;;;;;;;13.20;100.00;99554.88;5056931;28;20059;-74
2024/03/03 11:05:00;;;;;;;3.35;1.98;;;;;;;13.01;100.00;99560.44;5058200;28;20033;-76
2024/03/03 11:07:29;;;;;;;5.75;2.00;;;;;;;12.77;100.00;99560.19;5057185;28;20433;-74
2024/03/03 11:09:59;;;;;;;3.60;0.98;;;;;;;12.88;100.00;99561.34;5057535;28;20029;-73
2024/03/03 11:12:29;;;;;;;8.52;3.00;;;;;;;12.98;100.00;99561.69;5056807;28;20017;-73
2024/03/03 11:14:55;;;;;;;7.43;2.67;;;;;;;12.76;100.00;99566.66;5040532;28;20111;-75
2024/03/03 11:17:26;;;;;;;12.77;4.22;;;;;;;12.83;100.00;99571.97;5057075;28;20085;-75
2024/03/03 11:19:52;;;;;;;8.95;3.92;;;;;;;13.05;100.00;99575.13;5040924;28;20032;-75
2024/03/03 11:22:22;;;;;;;9.70;3.08;;;;;;;12.73;100.00;99572.50;5040239;28;20041;-75
2024/03/03 11:24:59;;;;;;;4.10;1.85;;;;;;;13.25;100.00;99575.75;5040070;28;20025;-75
2024/03/03 11:27:26;;;;;;;3.28;1.35;;;;;;;13.60;100.00;99584.19;5040326;28;20035;-75
2024/03/03 11:29:52;;;;;;;4.13;1.27;;;;;;;12.56;100.00;99579.44;5073370;28;20027;-75